createdAt,value
2022-09-22T00:01:26.942Z,99.90
2022-09-22T00:04:00.546Z,99.90
2022-09-22T00:06:37.387Z,99.90
2022-09-22T00:09:07.392Z,99.90
2022-09-22T00:11:38.926Z,99.90
2022-09-22T00:14:10.569Z,99.90
2022-09-22T00:16:44.679Z,99.90
2022-09-22T00:19:19.515Z,99.90
2022-09-22T00:21:47.796Z,99.90
2022-09-22T00:24:16.742Z,99.90
2022-09-22T00:26:44.066Z,99.90
2022-09-22T00:29:11.665Z,99.90
2022-09-22T00:31:40.801Z,99.90
2022-09-22T00:34:13.764Z,99.90
2022-09-22T00:36:40.713Z,99.90
2022-09-22T00:39:07.809Z,99.90
2022-09-22T00:41:40.612Z,99.90
2022-09-22T00:44:38.857Z,99.90
2022-09-22T00:47:32.479Z,99.90
2022-09-22T00:50:22.131Z,99.90
2022-09-22T00:53:02.050Z,99.90
2022-09-22T00:55:36.568Z,99.90
2022-09-22T00:58:08.517Z,99.90
2022-09-22T01:00:35.569Z,99.90
2022-09-22T01:03:07.323Z,99.90
2022-09-22T01:05:35.847Z,99.90
2022-09-22T01:08:03.436Z,99.90
2022-09-22T01:10:30.484Z,99.90
2022-09-22T01:13:32.301Z,99.90
2022-09-22T01:16:25.779Z,99.90
2022-09-22T01:19:28.803Z,99.90
2022-09-22T01:22:39.451Z,99.90
2022-09-22T01:25:34.090Z,99.90
2022-09-22T01:28:23.736Z,99.90
2022-09-22T01:31:05.497Z,99.90
2022-09-22T01:33:49.258Z,99.90
2022-09-22T01:37:13.136Z,99.90
2022-09-22T01:39:50.226Z,99.90
2022-09-22T01:42:43.079Z,99.90
2022-09-22T01:45:24.925Z,99.90
2022-09-22T01:47:58.537Z,99.90
2022-09-22T01:50:44.339Z,99.90
2022-09-22T01:53:17.523Z,99.90
2022-09-22T01:55:52.831Z,99.90
2022-09-22T01:58:32.641Z,99.90
2022-09-22T02:01:24.078Z,99.90
2022-09-22T02:04:05.091Z,99.90
2022-09-22T02:06:50.579Z,99.90
2022-09-22T02:09:22.173Z,99.90
2022-09-22T02:11:49.509Z,99.90
2022-09-22T02:14:16.937Z,99.90
2022-09-22T02:16:44.368Z,99.90
2022-09-22T02:19:24.130Z,99.90
2022-09-22T02:21:52.344Z,99.90
2022-09-22T02:24:43.575Z,99.90
2022-09-22T02:27:25.617Z,99.90
2022-09-22T02:30:08.225Z,99.90
2022-09-22T02:32:38.448Z,99.90
2022-09-22T02:35:07.471Z,99.90
2022-09-22T02:38:06.881Z,99.90
2022-09-22T02:41:01.651Z,99.90
2022-09-22T02:43:48.683Z,99.90
2022-09-22T02:46:39.543Z,99.90
2022-09-22T02:49:13.600Z,99.90
2022-09-22T02:51:42.000Z,99.90
2022-09-22T02:54:09.110Z,99.90
2022-09-22T02:56:36.206Z,99.90
2022-09-22T02:59:03.058Z,99.90
2022-09-22T03:01:30.032Z,99.90
2022-09-22T03:03:57.030Z,99.90
2022-09-22T03:06:23.926Z,99.90
2022-09-22T03:08:51.141Z,99.90
2022-09-22T03:11:18.134Z,99.90
2022-09-22T03:13:45.191Z,99.90
2022-09-22T03:16:12.205Z,99.90
2022-09-22T03:18:39.286Z,99.90
2022-09-22T03:21:06.369Z,99.90
2022-09-22T03:23:33.315Z,99.90
2022-09-22T03:26:00.390Z,99.90
2022-09-22T03:28:27.297Z,99.90
2022-09-22T03:30:54.277Z,99.90
2022-09-22T03:33:21.268Z,99.90
2022-09-22T03:35:48.282Z,99.90
2022-09-22T03:38:15.164Z,99.90
2022-09-22T03:40:42.195Z,99.90
2022-09-22T03:43:13.114Z,99.90
2022-09-22T03:45:42.930Z,99.90
2022-09-22T03:48:09.867Z,99.90
2022-09-22T03:50:36.870Z,99.90
2022-09-22T03:53:03.802Z,99.90
2022-09-22T03:55:30.802Z,99.90
2022-09-22T03:57:57.665Z,99.90
2022-09-22T04:00:24.614Z,99.90
2022-09-22T04:02:51.524Z,99.90
2022-09-22T04:05:18.877Z,99.90
2022-09-22T04:07:45.770Z,99.90
2022-09-22T04:10:12.781Z,99.90
2022-09-22T04:12:39.650Z,99.90
2022-09-22T04:15:08.021Z,99.90
2022-09-22T04:17:35.465Z,99.90
2022-09-22T04:20:04.487Z,99.90
2022-09-22T04:22:31.443Z,99.90
2022-09-22T04:24:58.565Z,99.90
2022-09-22T04:27:25.557Z,99.90
2022-09-22T04:29:53.061Z,99.90
2022-09-22T04:32:19.931Z,99.90
2022-09-22T04:34:47.867Z,99.90
2022-09-22T04:37:15.139Z,99.90
2022-09-22T04:39:42.250Z,99.90
2022-09-22T04:42:09.253Z,99.90
2022-09-22T04:44:36.237Z,99.90
2022-09-22T04:47:04.132Z,99.90
2022-09-22T04:49:31.196Z,99.90
2022-09-22T04:51:58.134Z,99.90
2022-09-22T04:54:25.068Z,99.90
2022-09-22T04:56:51.966Z,99.90
2022-09-22T04:59:19.091Z,99.90
2022-09-22T05:01:46.135Z,99.90
2022-09-22T05:04:13.381Z,99.90
2022-09-22T05:06:42.158Z,99.90
2022-09-22T05:09:09.381Z,99.90
2022-09-22T05:11:36.705Z,99.90
2022-09-22T05:14:03.843Z,99.90
2022-09-22T05:16:32.146Z,99.90
2022-09-22T05:18:59.185Z,99.90
2022-09-22T05:21:26.144Z,99.90
2022-09-22T05:23:53.610Z,99.90
2022-09-22T05:26:20.814Z,99.90
2022-09-22T05:28:47.738Z,99.90
2022-09-22T05:31:14.663Z,99.90
2022-09-22T05:33:41.705Z,99.90
2022-09-22T05:36:08.806Z,99.90
2022-09-22T05:38:35.860Z,99.90
2022-09-22T05:41:03.726Z,99.90
2022-09-22T05:43:30.797Z,99.90
2022-09-22T05:45:57.793Z,99.90
2022-09-22T05:48:28.880Z,99.90
2022-09-22T05:50:58.365Z,99.90
2022-09-22T05:53:25.246Z,99.90
2022-09-22T05:55:52.248Z,99.90
2022-09-22T05:58:19.133Z,99.90
2022-09-22T06:00:46.125Z,99.90
2022-09-22T06:03:13.452Z,99.90
2022-09-22T06:05:40.497Z,99.90
2022-09-22T06:08:07.810Z,99.90
2022-09-22T06:10:38.082Z,99.90
2022-09-22T06:13:08.257Z,99.90
2022-09-22T06:15:36.181Z,99.90
2022-09-22T06:18:13.052Z,99.90
2022-09-22T06:20:42.590Z,99.90
2022-09-22T06:23:09.707Z,99.90
2022-09-22T06:25:36.606Z,99.90
2022-09-22T06:28:06.738Z,99.90
2022-09-22T06:30:36.461Z,99.90
2022-09-22T06:33:03.487Z,99.90
2022-09-22T06:35:36.549Z,99.90
2022-09-22T06:38:06.484Z,99.90
2022-09-22T06:40:36.438Z,99.90
2022-09-22T06:43:15.062Z,99.90
2022-09-22T06:45:46.646Z,99.90
2022-09-22T06:48:13.694Z,99.90
2022-09-22T06:50:41.219Z,99.90
2022-09-22T06:53:13.935Z,99.90
2022-09-22T06:55:43.186Z,99.90
2022-09-22T06:58:11.678Z,99.90
2022-09-22T07:00:41.829Z,99.90
2022-09-22T07:03:22.826Z,99.90
2022-09-22T07:06:01.155Z,99.90
2022-09-22T07:08:31.185Z,99.90
2022-09-22T07:11:02.217Z,99.90
2022-09-22T07:13:31.639Z,99.90
2022-09-22T07:16:03.508Z,99.90
2022-09-22T07:18:30.932Z,99.90
2022-09-22T07:21:07.778Z,99.90
2022-09-22T07:23:36.456Z,99.90
2022-09-22T07:26:06.352Z,99.90
2022-09-22T07:28:36.608Z,99.90
2022-09-22T07:31:06.238Z,99.90
2022-09-22T07:33:37.531Z,99.90
2022-09-22T07:36:13.945Z,99.90
2022-09-22T07:38:43.619Z,99.90
2022-09-22T07:41:13.822Z,99.90
2022-09-22T07:43:42.025Z,99.90
2022-09-22T07:46:09.345Z,99.90
2022-09-22T07:48:37.661Z,99.90
2022-09-22T07:51:14.296Z,99.90
2022-09-22T07:53:42.750Z,99.90
2022-09-22T07:56:12.453Z,99.90
2022-09-22T07:58:53.989Z,99.90
2022-09-22T08:01:24.131Z,99.90
2022-09-22T08:03:52.151Z,99.90
2022-09-22T08:06:23.572Z,99.90
2022-09-22T08:08:56.479Z,99.90
2022-09-22T08:11:27.205Z,99.90
2022-09-22T08:14:00.342Z,99.90
2022-09-22T08:16:31.163Z,99.90
2022-09-22T08:19:02.247Z,99.90
2022-09-22T08:21:47.733Z,99.90
2022-09-22T08:24:22.329Z,99.90
2022-09-22T08:26:52.709Z,99.90
2022-09-22T08:29:20.427Z,99.90
2022-09-22T08:31:51.424Z,99.90
2022-09-22T08:34:18.823Z,99.90
2022-09-22T08:36:48.506Z,99.90
2022-09-22T08:39:17.499Z,99.90
2022-09-22T08:42:19.748Z,99.90
2022-09-22T08:45:17.449Z,99.90
2022-09-22T08:48:11.270Z,99.90
2022-09-22T08:51:23.027Z,99.90
2022-09-22T08:53:51.973Z,99.90
2022-09-22T08:56:41.917Z,99.90
2022-09-22T09:17:01.689Z,99.90
2022-09-22T09:19:47.425Z,99.90
2022-09-22T09:22:37.283Z,99.90
2022-09-22T09:25:23.437Z,99.90
2022-09-22T09:27:57.239Z,99.90
2022-09-22T09:30:24.287Z,99.90
2022-09-22T09:33:01.691Z,99.90
2022-09-22T09:35:45.808Z,99.90
2022-09-22T09:38:16.202Z,99.90
2022-09-22T09:40:57.153Z,99.90
2022-09-22T09:43:26.329Z,99.90
2022-09-22T09:46:24.667Z,99.90
2022-09-22T09:49:03.686Z,99.90
2022-09-22T09:51:39.554Z,99.90
2022-09-22T09:54:13.119Z,99.90
2022-09-22T09:57:11.564Z,99.90
2022-09-22T10:00:00.570Z,99.90
2022-09-22T10:02:30.029Z,99.90
2022-09-22T10:05:05.607Z,99.90
2022-09-22T10:07:48.399Z,99.90
2022-09-22T10:10:38.197Z,98.70
2022-09-22T10:13:05.005Z,98.20
2022-09-22T10:15:35.210Z,99.00
2022-09-22T10:18:03.777Z,98.60
2022-09-22T10:20:33.993Z,98.90
2022-09-22T10:23:21.592Z,97.50
2022-09-22T10:25:50.601Z,97.30
2022-09-22T10:28:20.441Z,96.50
2022-09-22T10:31:04.749Z,96.10
2022-09-22T10:33:33.718Z,96.20
2022-09-22T10:36:12.740Z,95.70
2022-09-22T10:38:42.348Z,95.20
2022-09-22T10:41:12.878Z,94.80
2022-09-22T10:43:45.511Z,93.40
2022-09-22T10:46:57.984Z,92.80
2022-09-22T10:49:35.258Z,92.20
2022-09-22T10:52:41.349Z,92.30
2022-09-22T10:55:25.975Z,91.10
2022-09-22T10:58:10.055Z,90.70
2022-09-22T11:00:40.900Z,87.30
2022-09-22T11:03:29.326Z,88.60
2022-09-22T11:06:31.114Z,90.50
2022-09-22T11:09:55.108Z,90.40
2022-09-22T11:12:50.382Z,88.50
2022-09-22T11:15:59.409Z,88.20
2022-09-22T11:18:58.763Z,89.80
2022-09-22T11:21:54.351Z,86.30
2022-09-22T11:25:04.521Z,87.70
2022-09-22T11:28:04.118Z,85.60
2022-09-22T11:30:57.464Z,85.20
2022-09-22T11:33:46.144Z,87.30
2022-09-22T11:37:26.397Z,83.60
2022-09-22T11:40:34.034Z,83.90
2022-09-22T11:43:28.666Z,80.80
2022-09-22T11:46:38.196Z,82.20
2022-09-22T11:49:30.878Z,83.50
2022-09-22T11:52:43.094Z,83.30
2022-09-22T11:55:52.221Z,83.60
2022-09-22T11:58:23.296Z,81.70
2022-09-22T12:01:12.400Z,80.70
2022-09-22T12:04:01.339Z,81.80
2022-09-22T12:06:37.491Z,78.50
2022-09-22T12:09:12.623Z,80.60
2022-09-22T12:11:40.961Z,76.10
2022-09-22T12:14:13.461Z,76.70
2022-09-22T12:16:52.036Z,74.50
2022-09-22T12:20:01.006Z,77.70
2022-09-22T12:22:44.107Z,77.00
2022-09-22T12:25:25.891Z,78.90
2022-09-22T12:28:02.467Z,77.20
2022-09-22T12:30:29.449Z,77.00
2022-09-22T12:32:56.497Z,78.80
2022-09-22T12:35:31.403Z,75.70
2022-09-22T12:38:02.239Z,76.10
2022-09-22T12:40:35.628Z,77.10
2022-09-22T12:43:03.084Z,75.90
2022-09-22T12:45:37.937Z,75.00
2022-09-22T12:48:24.099Z,76.20
2022-09-22T12:50:52.478Z,76.60
2022-09-22T12:53:22.403Z,75.80
2022-09-22T12:55:57.243Z,74.80
2022-09-22T12:58:38.512Z,74.80
2022-09-22T13:01:31.691Z,72.90
2022-09-22T13:04:18.293Z,75.60
2022-09-22T13:06:45.103Z,75.00
2022-09-22T13:09:25.410Z,75.20
2022-09-22T13:12:11.951Z,75.00
2022-09-22T13:15:05.055Z,73.30
2022-09-22T13:17:50.611Z,73.80
2022-09-22T13:20:30.259Z,76.00
2022-09-22T13:27:42.819Z,71.30
2022-09-22T13:30:14.276Z,72.50
2022-09-22T13:32:49.682Z,72.90
2022-09-22T13:35:28.275Z,71.40
2022-09-22T13:37:59.721Z,71.40
2022-09-22T13:40:31.703Z,72.90
2022-09-22T13:43:08.853Z,74.70
2022-09-22T13:45:38.314Z,73.40
2022-09-22T13:48:16.384Z,75.10
2022-09-22T13:55:33.467Z,72.40
2022-09-22T13:58:02.020Z,74.30
2022-09-22T14:00:49.792Z,69.60
2022-09-22T14:03:22.257Z,69.80
2022-09-22T14:05:54.076Z,70.30
2022-09-22T14:08:31.759Z,70.80
2022-09-22T14:11:00.120Z,71.50
2022-09-22T14:13:54.396Z,70.20
2022-09-22T14:16:47.309Z,71.80
2022-09-22T14:19:16.892Z,71.50
2022-09-22T14:21:52.233Z,72.20
2022-09-22T14:24:19.415Z,72.70
2022-09-22T14:27:01.638Z,72.80
2022-09-22T14:29:37.791Z,73.00
2022-09-22T14:32:19.293Z,73.70
2022-09-22T14:34:49.778Z,73.40
2022-09-22T14:37:27.908Z,74.30
2022-09-22T14:39:57.670Z,75.90
2022-09-22T14:42:29.017Z,77.10
2022-09-22T14:45:18.671Z,77.30
2022-09-22T14:47:45.844Z,78.40
2022-09-22T14:50:19.149Z,80.30
2022-09-22T14:53:06.874Z,81.50
2022-09-22T14:55:43.536Z,81.80
2022-09-22T14:58:25.436Z,81.30
2022-09-22T15:01:17.801Z,81.60
2022-09-22T15:03:59.119Z,82.00
2022-09-22T15:06:36.700Z,82.90
2022-09-22T15:09:05.734Z,83.50
2022-09-22T15:11:52.136Z,82.90
2022-09-22T15:14:34.066Z,83.40
2022-09-22T15:17:21.151Z,83.90
2022-09-22T15:19:57.073Z,84.20
2022-09-22T15:22:26.970Z,85.10
2022-09-22T15:24:54.601Z,86.70
2022-09-22T15:27:21.556Z,87.70
2022-09-22T15:29:54.854Z,88.70
2022-09-22T15:32:22.066Z,89.40
2022-09-22T15:34:48.897Z,89.70
2022-09-22T15:37:22.173Z,90.00
2022-09-22T15:39:49.330Z,90.10
2022-09-22T15:42:16.434Z,90.00
2022-09-22T15:44:44.274Z,87.50
2022-09-22T15:47:16.949Z,87.10
2022-09-22T15:49:45.010Z,87.10
2022-09-22T15:52:11.978Z,87.20
2022-09-22T15:54:38.905Z,86.30
2022-09-22T15:57:06.344Z,86.70
2022-09-22T15:59:33.616Z,86.90
2022-09-22T16:02:01.199Z,87.20
2022-09-22T16:04:33.787Z,87.00
2022-09-22T16:07:06.283Z,87.00
2022-09-22T16:09:33.169Z,87.60
2022-09-22T16:12:00.446Z,88.00
2022-09-22T16:14:27.397Z,88.10
2022-09-22T16:16:54.376Z,88.00
2022-09-22T16:19:21.281Z,88.60
2022-09-22T16:21:56.700Z,89.50
2022-09-22T16:24:23.977Z,90.20
2022-09-22T16:26:51.824Z,90.40
2022-09-22T16:29:19.494Z,91.10
2022-09-22T16:31:46.484Z,91.20
2022-09-22T16:34:13.502Z,91.00
2022-09-22T16:36:41.658Z,91.20
2022-09-22T16:39:08.709Z,92.10
2022-09-22T16:41:36.392Z,92.90
2022-09-22T16:44:04.483Z,93.70
2022-09-22T16:46:35.813Z,94.30
2022-09-22T16:49:10.633Z,94.00
2022-09-22T16:51:44.066Z,94.90
2022-09-22T16:54:13.661Z,95.50
2022-09-22T16:56:46.196Z,95.10
2022-09-22T16:59:17.855Z,95.90
2022-09-22T17:01:45.832Z,97.00
2022-09-22T17:04:16.295Z,97.80
2022-09-22T17:06:43.640Z,98.50
2022-09-22T17:09:12.492Z,99.00
2022-09-22T17:11:42.573Z,99.60
2022-09-22T17:14:27.806Z,99.90
2022-09-22T17:16:56.460Z,99.90
2022-09-22T17:19:26.526Z,99.90
2022-09-22T17:21:55.990Z,99.90
2022-09-22T17:24:25.013Z,99.90
2022-09-22T17:26:55.785Z,99.90
2022-09-22T17:29:28.993Z,99.90
2022-09-22T17:31:59.885Z,99.90
2022-09-22T17:34:30.518Z,99.90
2022-09-22T17:36:57.869Z,99.90
2022-09-22T17:39:26.897Z,99.90
2022-09-22T17:41:55.100Z,99.90
2022-09-22T17:44:22.829Z,99.90
2022-09-22T17:47:10.551Z,99.90
2022-09-22T17:49:56.938Z,99.90
2022-09-22T17:52:29.716Z,99.90
2022-09-22T17:55:07.897Z,99.90
2022-09-22T17:57:41.742Z,99.90
2022-09-22T18:00:21.227Z,99.90
2022-09-22T18:02:50.601Z,99.90
2022-09-22T18:05:25.366Z,99.90
2022-09-22T18:07:58.018Z,99.90
2022-09-22T18:10:32.169Z,99.90
2022-09-22T18:13:00.247Z,99.90
2022-09-22T18:15:29.082Z,99.90
2022-09-22T18:17:57.975Z,99.90
2022-09-22T18:20:26.119Z,99.90
2022-09-22T18:22:53.745Z,99.90
2022-09-22T18:25:23.879Z,99.90
2022-09-22T18:27:51.823Z,99.90
2022-09-22T18:30:19.476Z,99.90
2022-09-22T18:32:47.932Z,99.90
2022-09-22T18:35:15.665Z,99.90
2022-09-22T18:37:42.574Z,99.90
2022-09-22T18:40:12.264Z,99.90
2022-09-22T18:42:41.397Z,99.90
2022-09-22T18:45:10.894Z,99.90
2022-09-22T18:47:40.700Z,99.90
2022-09-22T18:50:08.715Z,99.90
2022-09-22T18:52:36.689Z,99.90
2022-09-22T18:55:04.698Z,99.90
2022-09-22T18:57:31.639Z,99.90
2022-09-22T19:00:00.231Z,99.90
2022-09-22T19:02:27.298Z,99.90
2022-09-22T19:04:54.787Z,99.90
2022-09-22T19:07:44.130Z,99.90
2022-09-22T19:10:22.520Z,99.90
2022-09-22T19:12:50.086Z,99.90
2022-09-22T19:15:18.798Z,99.90
2022-09-22T19:17:49.245Z,99.90
2022-09-22T19:20:24.836Z,99.90
2022-09-22T19:22:52.807Z,99.90
2022-09-22T19:25:21.932Z,99.90
2022-09-22T19:27:52.616Z,99.90
2022-09-22T19:30:23.297Z,99.90
2022-09-22T19:32:54.548Z,99.90
2022-09-22T19:35:21.870Z,99.90
2022-09-22T19:37:51.653Z,99.90
2022-09-22T19:40:19.435Z,99.90
2022-09-22T19:42:47.578Z,99.90
2022-09-22T19:45:14.739Z,99.90
2022-09-22T19:47:41.930Z,99.90
2022-09-22T19:50:09.122Z,99.90
2022-09-22T19:52:37.682Z,99.90
2022-09-22T19:55:07.043Z,99.90
2022-09-22T19:57:41.390Z,99.90
2022-09-22T20:00:18.000Z,99.90
2022-09-22T20:02:45.639Z,99.90
2022-09-22T20:05:20.739Z,99.90
2022-09-22T20:07:49.536Z,99.90
2022-09-22T20:10:18.902Z,99.90
2022-09-22T20:12:46.144Z,99.90
2022-09-22T20:15:16.191Z,99.90
2022-09-22T20:17:47.189Z,99.90
2022-09-22T20:20:20.702Z,99.90
2022-09-22T20:22:50.892Z,99.90
2022-09-22T20:25:25.649Z,99.90
2022-09-22T20:27:52.595Z,99.90
2022-09-22T20:30:20.031Z,99.90
2022-09-22T20:32:47.393Z,99.90
2022-09-22T20:35:17.398Z,99.90
2022-09-22T20:37:45.217Z,99.90
2022-09-22T20:40:20.425Z,99.90
2022-09-22T20:42:48.795Z,99.90
2022-09-22T20:45:16.173Z,99.90
2022-09-22T20:47:43.127Z,99.90
2022-09-22T20:50:11.857Z,99.90
2022-09-22T20:52:41.573Z,99.90
2022-09-22T20:55:10.849Z,99.90
2022-09-22T20:57:38.057Z,99.90
2022-09-22T21:00:05.588Z,99.90
2022-09-22T21:02:33.060Z,99.90
2022-09-22T21:05:00.071Z,99.90
2022-09-22T21:07:27.233Z,99.90
2022-09-22T21:10:12.859Z,99.90
2022-09-22T21:12:40.430Z,99.90
2022-09-22T21:15:08.043Z,99.90
2022-09-22T21:17:35.545Z,99.90
2022-09-22T21:20:02.975Z,99.90
2022-09-22T21:22:31.010Z,99.90
2022-09-22T21:24:58.100Z,99.90
2022-09-22T21:27:25.014Z,99.90
2022-09-22T21:29:53.137Z,99.90
2022-09-22T21:32:20.607Z,99.90
2022-09-22T21:34:47.510Z,99.90
2022-09-22T21:37:14.709Z,99.90
2022-09-22T21:39:41.603Z,99.90
2022-09-22T21:42:08.550Z,99.90
2022-09-22T21:44:35.389Z,99.90
2022-09-22T21:47:02.275Z,99.90
2022-09-22T21:49:29.123Z,99.90
2022-09-22T21:51:56.046Z,99.90
2022-09-22T21:54:23.147Z,99.90
2022-09-22T21:56:50.673Z,99.90
2022-09-22T21:59:17.748Z,99.90
2022-09-22T22:01:45.334Z,99.90
2022-09-22T22:04:15.166Z,99.90
2022-09-22T22:06:46.864Z,99.90
2022-09-22T22:09:20.100Z,99.90
2022-09-22T22:11:54.054Z,99.90
2022-09-22T22:14:22.530Z,99.90
2022-09-22T22:16:52.576Z,99.90
2022-09-22T22:19:22.649Z,99.90
2022-09-22T22:21:50.962Z,99.90
2022-09-22T22:24:28.764Z,99.90
2022-09-22T22:27:06.267Z,99.90
2022-09-22T22:29:38.699Z,99.90
2022-09-22T22:32:09.027Z,99.90
2022-09-22T22:34:36.268Z,99.90
2022-09-22T22:37:04.695Z,99.90
2022-09-22T22:39:32.549Z,99.90
2022-09-22T22:41:59.444Z,99.90
2022-09-22T22:44:26.337Z,99.90
2022-09-22T22:46:53.183Z,99.90
2022-09-22T22:49:20.975Z,99.90
2022-09-22T22:51:49.355Z,99.90
2022-09-22T22:54:16.531Z,99.90
2022-09-22T22:56:45.872Z,99.90
2022-09-22T22:59:15.993Z,99.90
2022-09-22T23:01:44.323Z,99.90
2022-09-22T23:04:12.058Z,99.90
2022-09-22T23:06:44.115Z,99.90
2022-09-22T23:09:14.432Z,99.90
2022-09-22T23:11:42.421Z,99.90
2022-09-22T23:14:11.788Z,99.90
2022-09-22T23:16:45.635Z,99.90
2022-09-22T23:19:16.987Z,99.90
2022-09-22T23:21:45.106Z,99.90
2022-09-22T23:24:16.152Z,99.90
2022-09-22T23:26:44.799Z,99.90
2022-09-22T23:29:11.719Z,99.90
2022-09-22T23:31:38.667Z,99.90
2022-09-22T23:34:05.781Z,99.90
2022-09-22T23:36:32.685Z,99.90
2022-09-22T23:39:04.883Z,99.90
2022-09-22T23:41:34.413Z,99.90
2022-09-22T23:44:02.757Z,99.90
2022-09-22T23:46:30.124Z,99.90
2022-09-22T23:48:57.930Z,99.90
2022-09-22T23:51:24.881Z,99.90
2022-09-22T23:53:51.860Z,99.90
2022-09-22T23:56:19.758Z,99.90
2022-09-22T23:58:46.734Z,99.90
